Copake Falls, New York
Current Conditions -  °F | °C
As of 11:09 AM on Thursday 23 Oct 2014 (Local Time) from KPSF Reporting Station
Light Rain Light Rain  
Wind Chill: 39°   Ceiling: 2400
Heat Index: 43°   Visibility: 6mi
Dew Point: 42°   Wind: 7mph
Humidity: 97%   Direction: 310°NW
Pressure: 29.75"   Gusts: NA
Location:  42.12°N, 73.53°W
Report Text: KPSF 231509Z AUTO 31006KT 6SM -RA BR SCT012 BKN024 OVC080 06/06 A2975 RMK AO2 P0002 T00610056
Loading
Personal Weather Stations






























Interactive Weather Map
Tropical Storm Tracking
New forecast layout! Learn more

10-Day Weather Forecast

Advertisements
Track Severe Weather on mobile